sensor_id;sensor_type;location;lat;lon;timestamp;temperature;humidity
59572;DHT22;74587;45.880;11.484;2023-12-14T00:00:45;3.60;99.90
59572;DHT22;74587;45.880;11.484;2023-12-14T00:03:11;3.50;99.90
59572;DHT22;74587;45.880;11.484;2023-12-14T00:05:37;3.80;99.90
59572;DHT22;74587;45.880;11.484;2023-12-14T00:08:03;3.80;99.90
59572;DHT22;74587;45.880;11.484;2023-12-14T00:10:29;3.80;99.90
59572;DHT22;74587;45.880;11.484;2023-12-14T00:12:54;3.80;99.90
59572;DHT22;74587;45.880;11.484;2023-12-14T00:15:21;3.70;99.90
59572;DHT22;74587;45.880;11.484;2023-12-14T00:17:46;3.90;99.90
59572;DHT22;74587;45.880;11.484;2023-12-14T00:20:12;4.00;99.90
59572;DHT22;74587;45.880;11.484;2023-12-14T00:22:38;4.00;99.90
59572;DHT22;74587;45.880;11.484;2023-12-14T00:25:05;4.10;99.90
59572;DHT22;74587;45.880;11.484;2023-12-14T00:27:30;4.00;99.90
59572;DHT22;74587;45.880;11.484;2023-12-14T00:29:56;4.00;99.90
59572;DHT22;74587;45.880;11.484;2023-12-14T00:32:22;4.10;99.90
59572;DHT22;74587;45.880;11.484;2023-12-14T00:34:47;4.00;99.90
59572;DHT22;74587;45.880;11.484;2023-12-14T00:37:14;3.80;99.90
59572;DHT22;74587;45.880;11.484;2023-12-14T00:39:40;3.90;99.90
59572;DHT22;74587;45.880;11.484;2023-12-14T00:42:06;4.00;99.90
59572;DHT22;74587;45.880;11.484;2023-12-14T00:44:32;3.50;99.90
59572;DHT22;74587;45.880;11.484;2023-12-14T00:46:57;3.50;99.90
59572;DHT22;74587;45.880;11.484;2023-12-14T00:49:24;3.60;99.90
59572;DHT22;74587;45.880;11.484;2023-12-14T00:51:49;3.50;99.90
59572;DHT22;74587;45.880;11.484;2023-12-14T00:54:15;3.50;99.90
59572;DHT22;74587;45.880;11.484;2023-12-14T00:56:41;3.50;99.90
59572;DHT22;74587;45.880;11.484;2023-12-14T00:59:07;3.40;99.90
59572;DHT22;74587;45.880;11.484;2023-12-14T01:01:33;3.60;99.90
59572;DHT22;74587;45.880;11.484;2023-12-14T01:03:58;3.50;99.90
59572;DHT22;74587;45.880;11.484;2023-12-14T01:06:25;3.60;99.90
59572;DHT22;74587;45.880;11.484;2023-12-14T01:08:51;3.30;99.90
59572;DHT22;74587;45.880;11.484;2023-12-14T01:11:16;3.30;99.90
59572;DHT22;74587;45.880;11.484;2023-12-14T01:13:42;3.20;99.90
59572;DHT22;74587;45.880;11.484;2023-12-14T01:16:08;3.40;99.90
59572;DHT22;74587;45.880;11.484;2023-12-14T01:18:34;3.10;99.90
59572;DHT22;74587;45.880;11.484;2023-12-14T01:20:59;3.20;99.90
59572;DHT22;74587;45.880;11.484;2023-12-14T01:23:25;3.30;99.90
59572;DHT22;74587;45.880;11.484;2023-12-14T01:25:51;3.10;99.90
59572;DHT22;74587;45.880;11.484;2023-12-14T01:28:17;3.30;99.90
59572;DHT22;74587;45.880;11.484;2023-12-14T01:30:42;3.20;99.90
59572;DHT22;74587;45.880;11.484;2023-12-14T01:33:08;3.30;99.90
59572;DHT22;74587;45.880;11.484;2023-12-14T01:35:34;3.30;99.90
59572;DHT22;74587;45.880;11.484;2023-12-14T01:37:59;3.20;99.90
59572;DHT22;74587;45.880;11.484;2023-12-14T01:40:25;3.50;99.90
59572;DHT22;74587;45.880;11.484;2023-12-14T01:42:51;3.70;99.90
59572;DHT22;74587;45.880;11.484;2023-12-14T01:45:17;3.60;99.90
59572;DHT22;74587;45.880;11.484;2023-12-14T01:47:43;3.30;99.90
59572;DHT22;74587;45.880;11.484;2023-12-14T01:50:09;3.60;99.90
59572;DHT22;74587;45.880;11.484;2023-12-14T01:52:35;3.60;99.90
59572;DHT22;74587;45.880;11.484;2023-12-14T01:55:01;3.50;99.90
59572;DHT22;74587;45.880;11.484;2023-12-14T01:57:28;3.40;99.90
59572;DHT22;74587;45.880;11.484;2023-12-14T01:59:54;3.70;99.90
59572;DHT22;74587;45.880;11.484;2023-12-14T02:02:19;3.50;99.90
59572;DHT22;74587;45.880;11.484;2023-12-14T02:04:45;3.60;99.90
59572;DHT22;74587;45.880;11.484;2023-12-14T02:07:11;3.40;99.90
59572;DHT22;74587;45.880;11.484;2023-12-14T02:09:37;3.10;99.90
59572;DHT22;74587;45.880;11.484;2023-12-14T02:12:03;3.10;99.90
59572;DHT22;74587;45.880;11.484;2023-12-14T02:14:28;3.00;99.90
59572;DHT22;74587;45.880;11.484;2023-12-14T02:16:54;3.30;99.90
59572;DHT22;74587;45.880;11.484;2023-12-14T02:19:20;3.50;99.90
59572;DHT22;74587;45.880;11.484;2023-12-14T02:21:45;3.30;99.90
59572;DHT22;74587;45.880;11.484;2023-12-14T02:24:11;3.20;99.90
59572;DHT22;74587;45.880;11.484;2023-12-14T02:26:37;3.30;99.90
59572;DHT22;74587;45.880;11.484;2023-12-14T02:29:02;3.20;99.90
59572;DHT22;74587;45.880;11.484;2023-12-14T02:31:28;3.20;99.90
59572;DHT22;74587;45.880;11.484;2023-12-14T02:33:54;3.20;99.90
59572;DHT22;74587;45.880;11.484;2023-12-14T02:36:19;3.20;99.90
59572;DHT22;74587;45.880;11.484;2023-12-14T02:38:45;3.00;99.90
59572;DHT22;74587;45.880;11.484;2023-12-14T02:41:11;3.10;99.90
59572;DHT22;74587;45.880;11.484;2023-12-14T02:43:37;3.20;99.90
59572;DHT22;74587;45.880;11.484;2023-12-14T02:46:03;2.70;99.90
59572;DHT22;74587;45.880;11.484;2023-12-14T02:48:29;2.80;99.90
59572;DHT22;74587;45.880;11.484;2023-12-14T02:50:55;2.70;99.90
59572;DHT22;74587;45.880;11.484;2023-12-14T02:53:21;2.50;99.90
59572;DHT22;74587;45.880;11.484;2023-12-14T02:55:47;2.70;99.90
59572;DHT22;74587;45.880;11.484;2023-12-14T02:58:12;2.60;99.90
59572;DHT22;74587;45.880;11.484;2023-12-14T03:04:00;2.60;99.90
59572;DHT22;74587;45.880;11.484;2023-12-14T03:06:26;2.60;99.90
59572;DHT22;74587;45.880;11.484;2023-12-14T03:08:51;2.60;99.90
59572;DHT22;74587;45.880;11.484;2023-12-14T03:11:23;2.60;99.90
59572;DHT22;74587;45.880;11.484;2023-12-14T03:13:49;2.60;99.90
59572;DHT22;74587;45.880;11.484;2023-12-14T03:16:15;2.60;99.90
59572;DHT22;74587;45.880;11.484;2023-12-14T03:18:42;2.40;99.90
59572;DHT22;74587;45.880;11.484;2023-12-14T03:21:09;2.60;99.90
59572;DHT22;74587;45.880;11.484;2023-12-14T03:23:35;2.40;99.90
59572;DHT22;74587;45.880;11.484;2023-12-14T03:26:01;2.60;99.90
59572;DHT22;74587;45.880;11.484;2023-12-14T03:28:27;2.60;99.90
59572;DHT22;74587;45.880;11.484;2023-12-14T03:30:53;2.60;99.90
59572;DHT22;74587;45.880;11.484;2023-12-14T03:33:18;2.80;99.90
59572;DHT22;74587;45.880;11.484;2023-12-14T03:35:45;2.90;99.90
59572;DHT22;74587;45.880;11.484;2023-12-14T03:38:13;2.70;99.90
59572;DHT22;74587;45.880;11.484;2023-12-14T03:40:39;2.90;99.90
59572;DHT22;74587;45.880;11.484;2023-12-14T03:43:05;2.70;99.90
59572;DHT22;74587;45.880;11.484;2023-12-14T03:45:31;2.70;99.90
59572;DHT22;74587;45.880;11.484;2023-12-14T03:47:56;2.70;99.90
59572;DHT22;74587;45.880;11.484;2023-12-14T03:50:22;2.70;99.90
59572;DHT22;74587;45.880;11.484;2023-12-14T03:52:48;2.80;99.90
59572;DHT22;74587;45.880;11.484;2023-12-14T03:55:14;2.70;99.90
59572;DHT22;74587;45.880;11.484;2023-12-14T03:57:43;2.70;99.90
59572;DHT22;74587;45.880;11.484;2023-12-14T04:00:12;2.60;99.90
59572;DHT22;74587;45.880;11.484;2023-12-14T04:02:42;2.50;99.90
59572;DHT22;74587;45.880;11.484;2023-12-14T04:05:08;2.60;99.90
59572;DHT22;74587;45.880;11.484;2023-12-14T04:07:36;2.50;99.90
59572;DHT22;74587;45.880;11.484;2023-12-14T04:10:02;2.50;99.90
59572;DHT22;74587;45.880;11.484;2023-12-14T04:12:28;2.60;99.90
59572;DHT22;74587;45.880;11.484;2023-12-14T04:14:54;2.70;99.90
59572;DHT22;74587;45.880;11.484;2023-12-14T04:17:19;2.70;99.90
59572;DHT22;74587;45.880;11.484;2023-12-14T04:19:45;2.90;99.90
59572;DHT22;74587;45.880;11.484;2023-12-14T04:22:11;2.80;99.90
59572;DHT22;74587;45.880;11.484;2023-12-14T04:24:36;2.80;99.90
59572;DHT22;74587;45.880;11.484;2023-12-14T04:27:02;2.50;99.90
59572;DHT22;74587;45.880;11.484;2023-12-14T04:29:28;2.50;99.90
59572;DHT22;74587;45.880;11.484;2023-12-14T04:31:54;2.40;99.90
59572;DHT22;74587;45.880;11.484;2023-12-14T04:34:20;2.40;99.90
59572;DHT22;74587;45.880;11.484;2023-12-14T04:36:46;2.20;99.90
59572;DHT22;74587;45.880;11.484;2023-12-14T04:39:12;2.40;99.90
59572;DHT22;74587;45.880;11.484;2023-12-14T04:41:37;2.30;99.90
59572;DHT22;74587;45.880;11.484;2023-12-14T04:44:03;2.30;99.90
59572;DHT22;74587;45.880;11.484;2023-12-14T04:46:29;2.50;99.90
59572;DHT22;74587;45.880;11.484;2023-12-14T04:48:55;2.60;99.90
59572;DHT22;74587;45.880;11.484;2023-12-14T04:51:21;2.30;99.90
59572;DHT22;74587;45.880;11.484;2023-12-14T04:53:47;2.50;99.90
59572;DHT22;74587;45.880;11.484;2023-12-14T04:56:13;2.60;99.90
59572;DHT22;74587;45.880;11.484;2023-12-14T04:58:39;2.50;99.90
59572;DHT22;74587;45.880;11.484;2023-12-14T05:01:05;2.60;99.90
59572;DHT22;74587;45.880;11.484;2023-12-14T05:03:32;2.60;99.90
59572;DHT22;74587;45.880;11.484;2023-12-14T05:05:58;2.50;99.90
59572;DHT22;74587;45.880;11.484;2023-12-14T05:08:24;2.50;99.90
59572;DHT22;74587;45.880;11.484;2023-12-14T05:10:50;2.60;99.90
59572;DHT22;74587;45.880;11.484;2023-12-14T05:13:15;2.40;99.90
59572;DHT22;74587;45.880;11.484;2023-12-14T05:15:41;2.50;99.90
59572;DHT22;74587;45.880;11.484;2023-12-14T05:18:07;2.20;99.90
59572;DHT22;74587;45.880;11.484;2023-12-14T05:20:34;2.40;99.90
59572;DHT22;74587;45.880;11.484;2023-12-14T05:23:00;2.30;99.90
59572;DHT22;74587;45.880;11.484;2023-12-14T05:25:26;2.40;99.90
59572;DHT22;74587;45.880;11.484;2023-12-14T05:27:51;2.30;99.90
59572;DHT22;74587;45.880;11.484;2023-12-14T05:30:17;2.40;99.90
59572;DHT22;74587;45.880;11.484;2023-12-14T05:32:43;2.30;99.90
59572;DHT22;74587;45.880;11.484;2023-12-14T05:35:10;2.50;99.90
59572;DHT22;74587;45.880;11.484;2023-12-14T05:37:36;2.50;99.90
59572;DHT22;74587;45.880;11.484;2023-12-14T05:40:02;2.40;99.90
59572;DHT22;74587;45.880;11.484;2023-12-14T05:42:28;2.10;99.90
59572;DHT22;74587;45.880;11.484;2023-12-14T05:44:54;2.00;99.90
59572;DHT22;74587;45.880;11.484;2023-12-14T05:47:20;2.00;99.90
59572;DHT22;74587;45.880;11.484;2023-12-14T05:49:45;2.00;99.90
59572;DHT22;74587;45.880;11.484;2023-12-14T05:52:11;2.10;99.90
59572;DHT22;74587;45.880;11.484;2023-12-14T05:54:38;2.10;99.90
59572;DHT22;74587;45.880;11.484;2023-12-14T05:57:05;2.20;99.90
59572;DHT22;74587;45.880;11.484;2023-12-14T05:59:31;2.20;99.90
59572;DHT22;74587;45.880;11.484;2023-12-14T06:02:00;2.50;99.90
59572;DHT22;74587;45.880;11.484;2023-12-14T06:04:27;2.40;99.90
59572;DHT22;74587;45.880;11.484;2023-12-14T06:06:53;2.30;99.90
59572;DHT22;74587;45.880;11.484;2023-12-14T06:09:19;2.30;99.90
59572;DHT22;74587;45.880;11.484;2023-12-14T06:11:50;2.50;99.90
59572;DHT22;74587;45.880;11.484;2023-12-14T06:14:16;2.30;99.90
59572;DHT22;74587;45.880;11.484;2023-12-14T06:16:42;2.30;99.90
59572;DHT22;74587;45.880;11.484;2023-12-14T06:19:08;2.50;99.90
59572;DHT22;74587;45.880;11.484;2023-12-14T06:21:33;2.20;99.90
59572;DHT22;74587;45.880;11.484;2023-12-14T06:23:59;2.50;99.90
59572;DHT22;74587;45.880;11.484;2023-12-14T06:26:25;2.50;99.90
59572;DHT22;74587;45.880;11.484;2023-12-14T06:28:51;2.70;99.90
59572;DHT22;74587;45.880;11.484;2023-12-14T06:31:18;2.40;99.90
59572;DHT22;74587;45.880;11.484;2023-12-14T06:33:49;2.30;99.90
59572;DHT22;74587;45.880;11.484;2023-12-14T06:36:18;2.30;99.90
59572;DHT22;74587;45.880;11.484;2023-12-14T06:38:44;2.20;99.90
59572;DHT22;74587;45.880;11.484;2023-12-14T06:41:21;2.30;99.90
59572;DHT22;74587;45.880;11.484;2023-12-14T06:43:47;2.30;99.90
59572;DHT22;74587;45.880;11.484;2023-12-14T06:46:12;2.30;99.90
59572;DHT22;74587;45.880;11.484;2023-12-14T06:48:38;2.30;99.90
59572;DHT22;74587;45.880;11.484;2023-12-14T06:51:04;2.30;99.90
59572;DHT22;74587;45.880;11.484;2023-12-14T06:53:29;2.20;99.90
59572;DHT22;74587;45.880;11.484;2023-12-14T06:55:55;2.30;99.90
59572;DHT22;74587;45.880;11.484;2023-12-14T06:58:21;2.40;99.90
59572;DHT22;74587;45.880;11.484;2023-12-14T07:00:47;2.10;99.90
59572;DHT22;74587;45.880;11.484;2023-12-14T07:03:13;2.30;99.90
59572;DHT22;74587;45.880;11.484;2023-12-14T07:05:39;2.20;99.90
59572;DHT22;74587;45.880;11.484;2023-12-14T07:08:05;2.30;99.90
59572;DHT22;74587;45.880;11.484;2023-12-14T07:10:31;2.10;99.90
59572;DHT22;74587;45.880;11.484;2023-12-14T07:12:57;2.20;99.90
59572;DHT22;74587;45.880;11.484;2023-12-14T07:15:22;2.20;99.90
59572;DHT22;74587;45.880;11.484;2023-12-14T07:17:48;2.20;99.90
59572;DHT22;74587;45.880;11.484;2023-12-14T07:20:14;2.40;99.90
59572;DHT22;74587;45.880;11.484;2023-12-14T07:22:40;2.30;99.90
59572;DHT22;74587;45.880;11.484;2023-12-14T07:25:06;2.50;99.90
59572;DHT22;74587;45.880;11.484;2023-12-14T07:27:32;2.30;99.90
59572;DHT22;74587;45.880;11.484;2023-12-14T07:29:57;2.30;99.90
59572;DHT22;74587;45.880;11.484;2023-12-14T07:32:23;2.30;99.90
59572;DHT22;74587;45.880;11.484;2023-12-14T07:34:49;2.10;99.90
59572;DHT22;74587;45.880;11.484;2023-12-14T07:37:14;2.30;99.90
59572;DHT22;74587;45.880;11.484;2023-12-14T07:39:40;2.30;99.90
59572;DHT22;74587;45.880;11.484;2023-12-14T07:42:06;2.50;99.90
59572;DHT22;74587;45.880;11.484;2023-12-14T07:44:32;2.60;99.90
59572;DHT22;74587;45.880;11.484;2023-12-14T07:47:00;2.80;99.90
59572;DHT22;74587;45.880;11.484;2023-12-14T07:49:26;2.80;99.90
59572;DHT22;74587;45.880;11.484;2023-12-14T07:51:51;2.70;99.90
59572;DHT22;74587;45.880;11.484;2023-12-14T07:54:18;2.90;99.90
59572;DHT22;74587;45.880;11.484;2023-12-14T07:56:44;2.90;99.90
59572;DHT22;74587;45.880;11.484;2023-12-14T07:59:10;2.90;99.90
59572;DHT22;74587;45.880;11.484;2023-12-14T08:01:36;3.00;99.90
59572;DHT22;74587;45.880;11.484;2023-12-14T08:04:03;3.30;99.90
59572;DHT22;74587;45.880;11.484;2023-12-14T08:06:29;3.20;99.90
59572;DHT22;74587;45.880;11.484;2023-12-14T08:08:58;3.20;99.90
59572;DHT22;74587;45.880;11.484;2023-12-14T08:11:24;3.30;99.90
59572;DHT22;74587;45.880;11.484;2023-12-14T08:13:50;3.20;99.90
59572;DHT22;74587;45.880;11.484;2023-12-14T08:16:16;3.20;99.90
59572;DHT22;74587;45.880;11.484;2023-12-14T08:18:45;3.20;99.90
59572;DHT22;74587;45.880;11.484;2023-12-14T08:21:12;3.10;99.90
59572;DHT22;74587;45.880;11.484;2023-12-14T08:23:38;3.40;99.90
59572;DHT22;74587;45.880;11.484;2023-12-14T08:26:03;3.30;99.90
59572;DHT22;74587;45.880;11.484;2023-12-14T08:28:29;3.40;99.90
59572;DHT22;74587;45.880;11.484;2023-12-14T08:30:55;3.50;99.90
59572;DHT22;74587;45.880;11.484;2023-12-14T08:33:23;3.70;99.90
59572;DHT22;74587;45.880;11.484;2023-12-14T08:35:49;3.50;99.90
59572;DHT22;74587;45.880;11.484;2023-12-14T08:38:16;3.60;99.90
59572;DHT22;74587;45.880;11.484;2023-12-14T08:40:42;3.80;99.90
59572;DHT22;74587;45.880;11.484;2023-12-14T08:43:07;3.80;99.90
59572;DHT22;74587;45.880;11.484;2023-12-14T08:45:33;3.80;99.90
59572;DHT22;74587;45.880;11.484;2023-12-14T08:47:59;3.90;99.90
59572;DHT22;74587;45.880;11.484;2023-12-14T08:50:25;4.00;99.90
59572;DHT22;74587;45.880;11.484;2023-12-14T08:52:52;4.00;99.40
59572;DHT22;74587;45.880;11.484;2023-12-14T08:55:18;4.00;99.40
59572;DHT22;74587;45.880;11.484;2023-12-14T08:57:44;4.20;99.10
59572;DHT22;74587;45.880;11.484;2023-12-14T09:00:10;4.30;99.60
59572;DHT22;74587;45.880;11.484;2023-12-14T09:02:36;4.30;98.60
59572;DHT22;74587;45.880;11.484;2023-12-14T09:05:03;4.50;98.40
59572;DHT22;74587;45.880;11.484;2023-12-14T09:07:30;4.50;98.20
59572;DHT22;74587;45.880;11.484;2023-12-14T09:09:56;4.50;98.40
59572;DHT22;74587;45.880;11.484;2023-12-14T09:12:22;4.60;97.70
59572;DHT22;74587;45.880;11.484;2023-12-14T09:14:48;4.60;97.50
59572;DHT22;74587;45.880;11.484;2023-12-14T09:17:14;4.70;96.50
59572;DHT22;74587;45.880;11.484;2023-12-14T09:19:39;4.80;96.40
59572;DHT22;74587;45.880;11.484;2023-12-14T09:22:05;4.90;96.20
59572;DHT22;74587;45.880;11.484;2023-12-14T09:24:31;4.90;96.10
59572;DHT22;74587;45.880;11.484;2023-12-14T09:26:56;4.80;96.30
59572;DHT22;74587;45.880;11.484;2023-12-14T09:29:22;4.80;95.90
59572;DHT22;74587;45.880;11.484;2023-12-14T09:31:48;4.90;96.10
59572;DHT22;74587;45.880;11.484;2023-12-14T09:34:14;4.70;96.10
59572;DHT22;74587;45.880;11.484;2023-12-14T09:36:40;4.90;96.80
59572;DHT22;74587;45.880;11.484;2023-12-14T09:39:06;4.90;99.40
59572;DHT22;74587;45.880;11.484;2023-12-14T09:41:39;4.80;99.90
59572;DHT22;74587;45.880;11.484;2023-12-14T09:44:05;4.90;99.90
59572;DHT22;74587;45.880;11.484;2023-12-14T09:46:34;4.90;99.90
59572;DHT22;74587;45.880;11.484;2023-12-14T09:49:02;5.00;99.90
59572;DHT22;74587;45.880;11.484;2023-12-14T09:51:28;5.00;99.90
59572;DHT22;74587;45.880;11.484;2023-12-14T09:53:53;5.00;98.00
59572;DHT22;74587;45.880;11.484;2023-12-14T09:56:27;5.00;97.30
59572;DHT22;74587;45.880;11.484;2023-12-14T09:58:53;5.30;96.90
59572;DHT22;74587;45.880;11.484;2023-12-14T10:01:26;5.40;96.50
59572;DHT22;74587;45.880;11.484;2023-12-14T10:04:16;5.40;95.20
59572;DHT22;74587;45.880;11.484;2023-12-14T10:06:44;5.40;94.10
59572;DHT22;74587;45.880;11.484;2023-12-14T10:09:10;5.70;94.20
59572;DHT22;74587;45.880;11.484;2023-12-14T10:11:39;5.40;94.60
59572;DHT22;74587;45.880;11.484;2023-12-14T10:14:22;5.80;95.20
59572;DHT22;74587;45.880;11.484;2023-12-14T10:16:49;5.20;93.70
59572;DHT22;74587;45.880;11.484;2023-12-14T10:19:17;5.50;95.40
59572;DHT22;74587;45.880;11.484;2023-12-14T10:21:44;5.50;95.90
59572;DHT22;74587;45.880;11.484;2023-12-14T10:24:12;5.60;95.50
59572;DHT22;74587;45.880;11.484;2023-12-14T10:30:03;5.80;96.80
59572;DHT22;74587;45.880;11.484;2023-12-14T10:32:29;5.90;96.60
59572;DHT22;74587;45.880;11.484;2023-12-14T10:34:55;6.00;96.20
59572;DHT22;74587;45.880;11.484;2023-12-14T10:37:21;6.10;96.50
59572;DHT22;74587;45.880;11.484;2023-12-14T10:39:49;6.10;95.10
59572;DHT22;74587;45.880;11.484;2023-12-14T10:42:18;6.10;94.40
59572;DHT22;74587;45.880;11.484;2023-12-14T10:44:51;6.30;93.90
59572;DHT22;74587;45.880;11.484;2023-12-14T10:47:19;6.20;92.60
59572;DHT22;74587;45.880;11.484;2023-12-14T10:49:49;6.40;90.50
59572;DHT22;74587;45.880;11.484;2023-12-14T10:52:16;6.40;90.40
59572;DHT22;74587;45.880;11.484;2023-12-14T10:54:44;6.60;89.40
59572;DHT22;74587;45.880;11.484;2023-12-14T10:57:11;6.50;88.00
59572;DHT22;74587;45.880;11.484;2023-12-14T10:59:37;6.60;86.70
59572;DHT22;74587;45.880;11.484;2023-12-14T11:02:10;6.60;86.20
59572;DHT22;74587;45.880;11.484;2023-12-14T11:05:05;6.60;86.30
59572;DHT22;74587;45.880;11.484;2023-12-14T11:07:53;6.70;85.60
59572;DHT22;74587;45.880;11.484;2023-12-14T11:10:35;6.90;86.50
59572;DHT22;74587;45.880;11.484;2023-12-14T11:13:06;6.70;86.60
59572;DHT22;74587;45.880;11.484;2023-12-14T11:15:35;6.80;86.70
59572;DHT22;74587;45.880;11.484;2023-12-14T11:23:14;6.80;86.20
59572;DHT22;74587;45.880;11.484;2023-12-14T11:25:40;7.00;86.60
59572;DHT22;74587;45.880;11.484;2023-12-14T11:28:07;7.10;86.20
59572;DHT22;74587;45.880;11.484;2023-12-14T11:30:36;7.10;86.00
59572;DHT22;74587;45.880;11.484;2023-12-14T11:33:03;7.20;86.10
59572;DHT22;74587;45.880;11.484;2023-12-14T11:35:29;7.30;86.00
59572;DHT22;74587;45.880;11.484;2023-12-14T11:37:55;7.20;85.80
59572;DHT22;74587;45.880;11.484;2023-12-14T11:40:25;7.30;85.20
59572;DHT22;74587;45.880;11.484;2023-12-14T11:43:04;7.20;85.80
59572;DHT22;74587;45.880;11.484;2023-12-14T11:45:37;7.30;86.10
59572;DHT22;74587;45.880;11.484;2023-12-14T11:48:08;7.50;86.10
59572;DHT22;74587;45.880;11.484;2023-12-14T11:50:37;7.30;86.00
59572;DHT22;74587;45.880;11.484;2023-12-14T11:53:03;7.40;85.20
59572;DHT22;74587;45.880;11.484;2023-12-14T11:55:31;7.60;85.00
59572;DHT22;74587;45.880;11.484;2023-12-14T11:57:57;7.60;85.00
59572;DHT22;74587;45.880;11.484;2023-12-14T12:00:27;7.40;85.40
59572;DHT22;74587;45.880;11.484;2023-12-14T12:03:22;7.50;85.10
59572;DHT22;74587;45.880;11.484;2023-12-14T12:05:50;7.60;85.20
59572;DHT22;74587;45.880;11.484;2023-12-14T12:08:18;7.60;85.00
59572;DHT22;74587;45.880;11.484;2023-12-14T12:10:45;7.50;85.20
59572;DHT22;74587;45.880;11.484;2023-12-14T12:13:16;7.80;85.00
59572;DHT22;74587;45.880;11.484;2023-12-14T12:15:43;7.80;84.90
59572;DHT22;74587;45.880;11.484;2023-12-14T12:18:13;7.90;85.00
59572;DHT22;74587;45.880;11.484;2023-12-14T12:20:39;7.80;84.70
59572;DHT22;74587;45.880;11.484;2023-12-14T12:23:05;7.80;84.10
59572;DHT22;74587;45.880;11.484;2023-12-14T12:25:32;7.90;83.50
59572;DHT22;74587;45.880;11.484;2023-12-14T12:27:59;7.90;83.40
59572;DHT22;74587;45.880;11.484;2023-12-14T12:30:25;7.80;83.00
59572;DHT22;74587;45.880;11.484;2023-12-14T12:32:51;7.90;83.20
59572;DHT22;74587;45.880;11.484;2023-12-14T12:35:21;8.00;82.80
59572;DHT22;74587;45.880;11.484;2023-12-14T12:37:47;8.00;83.00
59572;DHT22;74587;45.880;11.484;2023-12-14T12:40:19;7.90;83.20
59572;DHT22;74587;45.880;11.484;2023-12-14T12:42:45;7.80;83.00
59572;DHT22;74587;45.880;11.484;2023-12-14T12:45:14;7.80;83.60
59572;DHT22;74587;45.880;11.484;2023-12-14T12:47:40;7.90;83.80
59572;DHT22;74587;45.880;11.484;2023-12-14T12:50:07;8.00;84.00
59572;DHT22;74587;45.880;11.484;2023-12-14T12:52:33;8.00;84.00
59572;DHT22;74587;45.880;11.484;2023-12-14T12:54:58;8.10;84.00
59572;DHT22;74587;45.880;11.484;2023-12-14T12:57:24;8.10;83.80
59572;DHT22;74587;45.880;11.484;2023-12-14T12:59:50;8.20;83.80
59572;DHT22;74587;45.880;11.484;2023-12-14T13:02:15;8.20;83.80
59572;DHT22;74587;45.880;11.484;2023-12-14T13:04:41;8.30;84.00
59572;DHT22;74587;45.880;11.484;2023-12-14T13:07:07;8.40;83.60
59572;DHT22;74587;45.880;11.484;2023-12-14T13:09:33;8.40;82.80
59572;DHT22;74587;45.880;11.484;2023-12-14T13:11:58;8.30;81.60
59572;DHT22;74587;45.880;11.484;2023-12-14T13:14:24;8.40;81.40
59572;DHT22;74587;45.880;11.484;2023-12-14T13:16:50;8.40;81.40
59572;DHT22;74587;45.880;11.484;2023-12-14T13:19:16;8.50;81.30
59572;DHT22;74587;45.880;11.484;2023-12-14T13:21:41;8.40;80.00
59572;DHT22;74587;45.880;11.484;2023-12-14T13:24:07;8.50;79.00
59572;DHT22;74587;45.880;11.484;2023-12-14T13:26:33;8.50;77.10
59572;DHT22;74587;45.880;11.484;2023-12-14T13:28:59;8.70;75.40
59572;DHT22;74587;45.880;11.484;2023-12-14T13:31:24;8.60;73.90
59572;DHT22;74587;45.880;11.484;2023-12-14T13:33:50;8.80;75.20
59572;DHT22;74587;45.880;11.484;2023-12-14T13:36:16;8.90;74.60
59572;DHT22;74587;45.880;11.484;2023-12-14T13:38:42;8.80;75.30
59572;DHT22;74587;45.880;11.484;2023-12-14T13:41:08;8.80;74.80
59572;DHT22;74587;45.880;11.484;2023-12-14T13:43:34;8.80;74.50
59572;DHT22;74587;45.880;11.484;2023-12-14T13:46:00;8.80;74.30
59572;DHT22;74587;45.880;11.484;2023-12-14T13:48:27;8.80;74.10
59572;DHT22;74587;45.880;11.484;2023-12-14T13:50:56;8.90;72.90
59572;DHT22;74587;45.880;11.484;2023-12-14T13:53:22;8.90;71.30
59572;DHT22;74587;45.880;11.484;2023-12-14T13:55:50;8.90;71.10
59572;DHT22;74587;45.880;11.484;2023-12-14T13:58:16;9.00;71.20
59572;DHT22;74587;45.880;11.484;2023-12-14T14:00:43;9.00;71.00
59572;DHT22;74587;45.880;11.484;2023-12-14T14:03:09;8.90;70.40
59572;DHT22;74587;45.880;11.484;2023-12-14T14:05:35;9.00;70.60
59572;DHT22;74587;45.880;11.484;2023-12-14T14:08:00;9.00;70.40
59572;DHT22;74587;45.880;11.484;2023-12-14T14:10:26;9.00;70.70
59572;DHT22;74587;45.880;11.484;2023-12-14T14:12:52;9.00;71.00
59572;DHT22;74587;45.880;11.484;2023-12-14T14:15:18;9.00;71.30
59572;DHT22;74587;45.880;11.484;2023-12-14T14:17:46;9.00;71.60
59572;DHT22;74587;45.880;11.484;2023-12-14T14:20:13;8.90;72.40
59572;DHT22;74587;45.880;11.484;2023-12-14T14:22:39;8.90;72.60
59572;DHT22;74587;45.880;11.484;2023-12-14T14:25:06;8.90;72.30
59572;DHT22;74587;45.880;11.484;2023-12-14T14:27:36;8.80;73.00
59572;DHT22;74587;45.880;11.484;2023-12-14T14:30:02;8.80;72.70
59572;DHT22;74587;45.880;11.484;2023-12-14T14:32:28;8.70;73.00
59572;DHT22;74587;45.880;11.484;2023-12-14T14:34:57;8.70;73.20
59572;DHT22;74587;45.880;11.484;2023-12-14T14:37:24;8.70;72.80
59572;DHT22;74587;45.880;11.484;2023-12-14T14:39:50;8.70;73.10
59572;DHT22;74587;45.880;11.484;2023-12-14T14:42:16;8.70;72.80
59572;DHT22;74587;45.880;11.484;2023-12-14T14:44:42;8.70;72.80
59572;DHT22;74587;45.880;11.484;2023-12-14T14:47:08;8.70;72.90
59572;DHT22;74587;45.880;11.484;2023-12-14T14:49:34;8.60;72.80
59572;DHT22;74587;45.880;11.484;2023-12-14T14:51:59;8.60;72.90
59572;DHT22;74587;45.880;11.484;2023-12-14T14:54:25;8.60;72.10
59572;DHT22;74587;45.880;11.484;2023-12-14T14:56:51;8.50;72.80
59572;DHT22;74587;45.880;11.484;2023-12-14T14:59:16;8.30;73.20
59572;DHT22;74587;45.880;11.484;2023-12-14T15:01:42;8.40;73.10
59572;DHT22;74587;45.880;11.484;2023-12-14T15:04:08;8.20;72.90
59572;DHT22;74587;45.880;11.484;2023-12-14T15:06:34;8.10;73.00
59572;DHT22;74587;45.880;11.484;2023-12-14T15:09:00;8.10;73.10
59572;DHT22;74587;45.880;11.484;2023-12-14T15:11:26;8.10;73.20
59572;DHT22;74587;45.880;11.484;2023-12-14T15:13:52;8.00;73.50
59572;DHT22;74587;45.880;11.484;2023-12-14T15:16:18;7.70;73.40
59572;DHT22;74587;45.880;11.484;2023-12-14T15:18:44;7.70;73.70
59572;DHT22;74587;45.880;11.484;2023-12-14T15:21:11;7.60;74.00
59572;DHT22;74587;45.880;11.484;2023-12-14T15:23:37;7.40;74.40
59572;DHT22;74587;45.880;11.484;2023-12-14T15:26:03;7.20;73.50
59572;DHT22;74587;45.880;11.484;2023-12-14T15:28:29;7.30;72.30
59572;DHT22;74587;45.880;11.484;2023-12-14T15:30:55;7.20;72.80
59572;DHT22;74587;45.880;11.484;2023-12-14T15:33:20;7.30;73.20
59572;DHT22;74587;45.880;11.484;2023-12-14T15:35:51;7.20;73.80
59572;DHT22;74587;45.880;11.484;2023-12-14T15:38:17;6.90;73.40